JES3150 SABE-SARI
Flight info
| Callsign | JES3150 |
|---|---|
| Flight time | 1h 34m |
| Altitude | 35000 |
| Route | LANDA4B LANDA UN785 GEMSU UT667 DOKBA DOKBA2M |
| Aircraft | A320/M-SDE3FGHIRWY/LB1 |
Departure
| Time | 2026-04-21 21:10 |
|---|---|
| Airport | Aeroparque Jorge Newbery (SABE) |
Arrival
| Time | 2026-04-21 22:45 |
|---|---|
| Airport | Cataratas Del Iguazú International Airport (SARI) |
| Time | Latitude | Longitude | Altitude | Speed | Heading |
|---|---|---|---|---|---|
| 2026-04-21 20:40 | -34.55799 | -58.41248 | 26 ft | 0 kts | 37° |
| 2026-04-21 21:00 | -34.55800 | -58.41248 | 26 ft | 0 kts | 37° |
| 2026-04-21 21:00 | -34.55806 | -58.41253 | 26 ft | 2 kts | 37° |
| 2026-04-21 21:01 | -34.55813 | -58.41259 | 26 ft | 2 kts | 37° |
| 2026-04-21 21:01 | -34.55825 | -58.41269 | 26 ft | 2 kts | 7° |
| 2026-04-21 21:01 | -34.55840 | -58.41266 | 26 ft | 2 kts | 328° |
| 2026-04-21 21:01 | -34.55850 | -58.41253 | 27 ft | 2 kts | 293° |
| 2026-04-21 21:02 | -34.55857 | -58.41237 | 26 ft | 2 kts | 307° |
| 2026-04-21 21:02 | -34.55866 | -58.41223 | 26 ft | 1 kts | 309° |
| 2026-04-21 21:02 | -34.55870 | -58.41217 | 26 ft | 0 kts | 311° |
| 2026-04-21 21:04 | -34.55865 | -58.41224 | 26 ft | 2 kts | 310° |
| 2026-04-21 21:05 | -34.55856 | -58.41260 | 26 ft | 6 kts | 256° |
| 2026-04-21 21:05 | -34.55897 | -58.41302 | 26 ft | 8 kts | 213° |
| 2026-04-21 21:05 | -34.55896 | -58.41364 | 26 ft | 8 kts | 298° |
| 2026-04-21 21:05 | -34.55867 | -58.41433 | 26 ft | 9 kts | 297° |
| 2026-04-21 21:06 | -34.55836 | -58.41506 | 26 ft | 10 kts | 296° |
| 2026-04-21 21:06 | -34.55802 | -58.41585 | 26 ft | 10 kts | 297° |
| 2026-04-21 21:06 | -34.55767 | -58.41666 | 26 ft | 11 kts | 296° |
| 2026-04-21 21:06 | -34.55733 | -58.41753 | 26 ft | 11 kts | 299° |
| 2026-04-21 21:07 | -34.55688 | -58.41834 | 26 ft | 11 kts | 303° |
| 2026-04-21 21:07 | -34.55642 | -58.41917 | 26 ft | 12 kts | 304° |
| 2026-04-21 21:07 | -34.55594 | -58.42003 | 26 ft | 12 kts | 304° |
| 2026-04-21 21:07 | -34.55541 | -58.42090 | 26 ft | 12 kts | 306° |
| 2026-04-21 21:08 | -34.55489 | -58.42174 | 26 ft | 12 kts | 307° |
| 2026-04-21 21:08 | -34.55436 | -58.42261 | 26 ft | 12 kts | 308° |
| 2026-04-21 21:08 | -34.55381 | -58.42348 | 26 ft | 13 kts | 305° |
| 2026-04-21 21:08 | -34.55355 | -58.42453 | 26 ft | 13 kts | 275° |
| 2026-04-21 21:09 | -34.55402 | -58.42507 | 26 ft | 8 kts | 133° |
| 2026-04-21 21:09 | -34.55428 | -58.42461 | 26 ft | 6 kts | 123° |
| 2026-04-21 21:09 | -34.55463 | -58.42398 | 26 ft | 22 kts | 124° |
| 2026-04-21 21:09 | -34.55708 | -58.41961 | 27 ft | 100 kts | 123° |
| 2026-04-21 21:10 | -34.56225 | -58.41036 | 67 ft | 157 kts | 125° |
| 2026-04-21 21:10 | -34.56842 | -58.39919 | 657 ft | 160 kts | 123° |
| 2026-04-21 21:10 | -34.57436 | -58.38741 | 1300 ft | 164 kts | 107° |
| 2026-04-21 21:10 | -34.57204 | -58.37459 | 1839 ft | 167 kts | 41° |
| 2026-04-21 21:11 | -34.56255 | -58.36597 | 2340 ft | 177 kts | 34° |
| 2026-04-21 21:11 | -34.55209 | -58.35726 | 2787 ft | 190 kts | 33° |
| 2026-04-21 21:11 | -34.54052 | -58.34788 | 3162 ft | 209 kts | 33° |
| 2026-04-21 21:11 | -34.52761 | -58.33750 | 3521 ft | 233 kts | 32° |
| 2026-04-21 21:12 | -34.51367 | -58.32628 | 4012 ft | 251 kts | 32° |
| 2026-04-21 21:12 | -34.49871 | -58.31429 | 4509 ft | 268 kts | 32° |
| 2026-04-21 21:12 | -34.48247 | -58.30258 | 5260 ft | 275 kts | 20° |
| 2026-04-21 21:12 | -34.46384 | -58.29900 | 6107 ft | 275 kts | 353° |
| 2026-04-21 21:13 | -34.44579 | -58.30573 | 6905 ft | 277 kts | 331° |
| 2026-04-21 21:13 | -34.42958 | -58.31772 | 7708 ft | 279 kts | 325° |
| 2026-04-21 21:13 | -34.41341 | -58.33115 | 8479 ft | 284 kts | 324° |
| 2026-04-21 21:13 | -34.39708 | -58.34482 | 9253 ft | 287 kts | 324° |
| 2026-04-21 21:14 | -34.38053 | -58.35848 | 10025 ft | 290 kts | 325° |
| 2026-04-21 21:14 | -34.36360 | -58.37230 | 10628 ft | 299 kts | 325° |
| 2026-04-21 21:14 | -34.34586 | -58.38668 | 11048 ft | 314 kts | 325° |
| 2026-04-21 21:14 | -34.32770 | -58.40132 | 11724 ft | 318 kts | 325° |
| 2026-04-21 21:15 | -34.30913 | -58.41624 | 12471 ft | 320 kts | 325° |
| 2026-04-21 21:15 | -34.29059 | -58.43110 | 13186 ft | 323 kts | 325° |
| 2026-04-21 21:15 | -34.27179 | -58.44617 | 13898 ft | 325 kts | 324° |
| 2026-04-21 21:15 | -34.25291 | -58.46129 | 14598 ft | 328 kts | 324° |
| 2026-04-21 21:16 | -34.23402 | -58.47644 | 15280 ft | 330 kts | 324° |
| 2026-04-21 21:16 | -34.21478 | -58.49186 | 15958 ft | 332 kts | 323° |
| 2026-04-21 21:16 | -34.19552 | -58.50729 | 16614 ft | 334 kts | 323° |
| 2026-04-21 21:16 | -34.17618 | -58.52275 | 17251 ft | 336 kts | 323° |
| 2026-04-21 21:17 | -34.15612 | -58.53749 | 17856 ft | 341 kts | 333° |
| 2026-04-21 21:17 | -34.13293 | -58.54298 | 18362 ft | 355 kts | 359° |
| 2026-04-21 21:17 | -34.10024 | -58.53521 | 19194 ft | 361 kts | 9° |
| 2026-04-21 21:17 | -34.08389 | -58.53038 | 19555 ft | 363 kts | 9° |
| 2026-04-21 21:18 | -34.05929 | -58.52351 | 20070 ft | 366 kts | 7° |
| 2026-04-21 21:18 | -34.03458 | -58.51707 | 20596 ft | 369 kts | 6° |
| 2026-04-21 21:18 | -34.00925 | -58.51082 | 21130 ft | 372 kts | 6° |
| 2026-04-21 21:18 | -33.98369 | -58.50466 | 21656 ft | 374 kts | 6° |
| 2026-04-21 21:19 | -33.95792 | -58.49865 | 22172 ft | 376 kts | 3° |
| 2026-04-21 21:19 | -33.93171 | -58.49419 | 22690 ft | 377 kts | 1° |
| 2026-04-21 21:19 | -33.90573 | -58.49042 | 23188 ft | 380 kts | 0° |
| 2026-04-21 21:19 | -33.87928 | -58.48663 | 23681 ft | 382 kts | 0° |
| 2026-04-21 21:20 | -33.85303 | -58.48280 | 24158 ft | 385 kts | 0° |
| 2026-04-21 21:20 | -33.82623 | -58.47918 | 24626 ft | 385 kts | 356° |
| 2026-04-21 21:20 | -33.79941 | -58.47900 | 25101 ft | 383 kts | 351° |
| 2026-04-21 21:20 | -33.77262 | -58.48016 | 25555 ft | 385 kts | 351° |
| 2026-04-21 21:21 | -33.74576 | -58.48153 | 25992 ft | 387 kts | 350° |
| 2026-04-21 21:21 | -33.71901 | -58.48287 | 26421 ft | 389 kts | 350° |
| 2026-04-21 21:21 | -33.69159 | -58.48419 | 26851 ft | 391 kts | 350° |
| 2026-04-21 21:21 | -33.66434 | -58.48543 | 27266 ft | 393 kts | 350° |
| 2026-04-21 21:22 | -33.63705 | -58.48660 | 27662 ft | 395 kts | 350° |
| 2026-04-21 21:22 | -33.60909 | -58.48774 | 28050 ft | 397 kts | 350° |
| 2026-04-21 21:22 | -33.58134 | -58.48880 | 28419 ft | 399 kts | 350° |
| 2026-04-21 21:22 | -33.55349 | -58.48982 | 28773 ft | 401 kts | 350° |
| 2026-04-21 21:23 | -33.52568 | -58.49078 | 29111 ft | 402 kts | 350° |
| 2026-04-21 21:23 | -33.49737 | -58.49171 | 29439 ft | 404 kts | 350° |
| 2026-04-21 21:23 | -33.46958 | -58.49257 | 29748 ft | 405 kts | 350° |
| 2026-04-21 21:23 | -33.44098 | -58.49342 | 30052 ft | 407 kts | 350° |
| 2026-04-21 21:24 | -33.41286 | -58.49421 | 30331 ft | 409 kts | 350° |
| 2026-04-21 21:24 | -33.38414 | -58.49500 | 30499 ft | 413 kts | 350° |
| 2026-04-21 21:24 | -33.35532 | -58.49582 | 30695 ft | 416 kts | 350° |
| 2026-04-21 21:24 | -33.32655 | -58.49661 | 30945 ft | 417 kts | 350° |
| 2026-04-21 21:25 | -33.29724 | -58.49739 | 31206 ft | 418 kts | 350° |
| 2026-04-21 21:25 | -33.26837 | -58.49812 | 31524 ft | 418 kts | 350° |
| 2026-04-21 21:25 | -33.23915 | -58.49878 | 31875 ft | 416 kts | 350° |
| 2026-04-21 21:25 | -33.21060 | -58.49934 | 32205 ft | 414 kts | 350° |
| 2026-04-21 21:26 | -33.18154 | -58.49983 | 32518 ft | 413 kts | 350° |
| 2026-04-21 21:26 | -33.15308 | -58.50024 | 32811 ft | 413 kts | 350° |
| 2026-04-21 21:26 | -33.12457 | -58.50058 | 33102 ft | 412 kts | 350° |
| 2026-04-21 21:26 | -33.09565 | -58.50084 | 33384 ft | 411 kts | 350° |
| 2026-04-21 21:27 | -33.06692 | -58.50088 | 33687 ft | 409 kts | 349° |
| 2026-04-21 21:27 | -33.03863 | -58.50061 | 34009 ft | 407 kts | 349° |
| 2026-04-21 21:27 | -33.01025 | -58.50003 | 34322 ft | 405 kts | 349° |
| 2026-04-21 21:27 | -32.98209 | -58.49919 | 34613 ft | 403 kts | 349° |
| 2026-04-21 21:28 | -32.95416 | -58.49812 | 34887 ft | 401 kts | 350° |
| 2026-04-21 21:28 | -32.92644 | -58.49692 | 34963 ft | 401 kts | 350° |
| 2026-04-21 21:29 | -32.84214 | -58.49236 | 34970 ft | 408 kts | 355° |
| 2026-04-21 21:29 | -32.81392 | -58.48574 | 34974 ft | 420 kts | 2° |
| 2026-04-21 21:29 | -32.78506 | -58.47619 | 34977 ft | 422 kts | 3° |
| 2026-04-21 21:30 | -32.72868 | -58.45674 | 34978 ft | 422 kts | 3° |
| 2026-04-21 21:30 | -32.67171 | -58.43733 | 34979 ft | 422 kts | 3° |
| 2026-04-21 21:31 | -32.61460 | -58.41806 | 34979 ft | 421 kts | 3° |
| 2026-04-21 21:31 | -32.55809 | -58.39907 | 34979 ft | 421 kts | 3° |
| 2026-04-21 21:32 | -32.50108 | -58.37997 | 34979 ft | 421 kts | 3° |
| 2026-04-21 21:32 | -32.44389 | -58.36086 | 34979 ft | 421 kts | 3° |
| 2026-04-21 21:33 | -32.38686 | -58.34182 | 34979 ft | 421 kts | 3° |
| 2026-04-21 21:33 | -32.32975 | -58.32271 | 34979 ft | 421 kts | 3° |
| 2026-04-21 21:34 | -32.27308 | -58.30380 | 34979 ft | 421 kts | 3° |
| 2026-04-21 21:34 | -32.21612 | -58.28484 | 34979 ft | 421 kts | 3° |
| 2026-04-21 21:35 | -32.15923 | -58.26594 | 34979 ft | 421 kts | 3° |
| 2026-04-21 21:35 | -32.10227 | -58.24711 | 34979 ft | 421 kts | 3° |
| 2026-04-21 21:36 | -32.04606 | -58.22854 | 34979 ft | 421 kts | 3° |
| 2026-04-21 21:36 | -31.98968 | -58.20998 | 34979 ft | 421 kts | 3° |
| 2026-04-21 21:37 | -31.93284 | -58.19125 | 34979 ft | 422 kts | 3° |
| 2026-04-21 21:37 | -31.87640 | -58.17266 | 34979 ft | 422 kts | 3° |
| 2026-04-21 21:38 | -31.81996 | -58.15408 | 34979 ft | 422 kts | 3° |
| 2026-04-21 21:38 | -31.76382 | -58.13561 | 34979 ft | 422 kts | 3° |
| 2026-04-21 21:39 | -31.70723 | -58.11702 | 34979 ft | 422 kts | 3° |
| 2026-04-21 21:39 | -31.65048 | -58.09839 | 34979 ft | 422 kts | 3° |
| 2026-04-21 21:40 | -31.59361 | -58.07974 | 34979 ft | 422 kts | 3° |
| 2026-04-21 21:40 | -31.53709 | -58.06124 | 34979 ft | 422 kts | 3° |
| 2026-04-21 21:41 | -31.47970 | -58.04247 | 34979 ft | 422 kts | 3° |
| 2026-04-21 21:41 | -31.42267 | -58.02385 | 34979 ft | 422 kts | 3° |
| 2026-04-21 21:42 | -31.36515 | -58.00508 | 34979 ft | 422 kts | 3° |
| 2026-04-21 21:42 | -31.30830 | -57.98661 | 34979 ft | 422 kts | 3° |
| 2026-04-21 21:43 | -31.25164 | -57.96818 | 34979 ft | 422 kts | 3° |
| 2026-04-21 21:43 | -31.19483 | -57.94971 | 34979 ft | 422 kts | 3° |
| 2026-04-21 21:44 | -31.13781 | -57.93117 | 34979 ft | 423 kts | 3° |
| 2026-04-21 21:44 | -31.08056 | -57.91260 | 34979 ft | 423 kts | 3° |
| 2026-04-21 21:45 | -31.02402 | -57.89431 | 34978 ft | 423 kts | 3° |
| 2026-04-21 21:45 | -30.96675 | -57.87585 | 34978 ft | 424 kts | 4° |
| 2026-04-21 21:46 | -30.90971 | -57.85741 | 34980 ft | 425 kts | 5° |
| 2026-04-21 21:46 | -30.85246 | -57.83894 | 34979 ft | 424 kts | 5° |
| 2026-04-21 21:47 | -30.79525 | -57.82047 | 34979 ft | 424 kts | 5° |
| 2026-04-21 21:47 | -30.73805 | -57.80207 | 34979 ft | 424 kts | 5° |
| 2026-04-21 21:48 | -30.68083 | -57.78356 | 34978 ft | 425 kts | 6° |
| 2026-04-21 21:48 | -30.62387 | -57.76358 | 34979 ft | 426 kts | 6° |
| 2026-04-21 21:49 | -30.56679 | -57.74348 | 34979 ft | 426 kts | 6° |
| 2026-04-21 21:49 | -30.50963 | -57.72345 | 34979 ft | 426 kts | 6° |
| 2026-04-21 21:50 | -30.45267 | -57.70356 | 34978 ft | 426 kts | 6° |
| 2026-04-21 21:50 | -30.39514 | -57.68351 | 34978 ft | 426 kts | 6° |
| 2026-04-21 21:51 | -30.33758 | -57.66340 | 34978 ft | 428 kts | 7° |
| 2026-04-21 21:51 | -30.28080 | -57.63848 | 34979 ft | 437 kts | 14° |
| 2026-04-21 21:52 | -30.22630 | -57.60556 | 34979 ft | 447 kts | 21° |
| 2026-04-21 21:52 | -30.17368 | -57.56503 | 34980 ft | 452 kts | 25° |
| 2026-04-21 21:53 | -30.12196 | -57.52358 | 34978 ft | 452 kts | 25° |
| 2026-04-21 21:53 | -30.06977 | -57.48196 | 34979 ft | 452 kts | 25° |
| 2026-04-21 21:54 | -30.01755 | -57.44045 | 34979 ft | 452 kts | 25° |
| 2026-04-21 21:54 | -29.96552 | -57.39920 | 34979 ft | 452 kts | 25° |
| 2026-04-21 21:55 | -29.91322 | -57.35781 | 34979 ft | 452 kts | 25° |
| 2026-04-21 21:55 | -29.86163 | -57.31692 | 34978 ft | 452 kts | 24° |
| 2026-04-21 21:56 | -29.80938 | -57.27557 | 34979 ft | 452 kts | 24° |
| 2026-04-21 21:56 | -29.75709 | -57.23432 | 34981 ft | 456 kts | 24° |
| 2026-04-21 21:57 | -29.70354 | -57.19219 | 34976 ft | 455 kts | 24° |
| 2026-04-21 21:57 | -29.65103 | -57.15088 | 34978 ft | 452 kts | 24° |
| 2026-04-21 21:58 | -29.59917 | -57.11015 | 34979 ft | 452 kts | 24° |
| 2026-04-21 21:58 | -29.54679 | -57.06907 | 34979 ft | 452 kts | 24° |
| 2026-04-21 21:59 | -29.49483 | -57.02833 | 34978 ft | 453 kts | 24° |
| 2026-04-21 21:59 | -29.44272 | -56.98753 | 34979 ft | 453 kts | 24° |
| 2026-04-21 22:00 | -29.39003 | -56.94636 | 34979 ft | 453 kts | 24° |
| 2026-04-21 22:00 | -29.33769 | -56.90553 | 34979 ft | 454 kts | 24° |
| 2026-04-21 22:01 | -29.28525 | -56.86467 | 34979 ft | 454 kts | 24° |
| 2026-04-21 22:01 | -29.23316 | -56.82411 | 34979 ft | 452 kts | 24° |
| 2026-04-21 22:02 | -29.18067 | -56.78332 | 34979 ft | 452 kts | 24° |
| 2026-04-21 22:02 | -29.12816 | -56.74259 | 34979 ft | 452 kts | 24° |
| 2026-04-21 22:03 | -29.07517 | -56.70153 | 34980 ft | 451 kts | 24° |
| 2026-04-21 22:03 | -29.02304 | -56.66120 | 34980 ft | 448 kts | 24° |
| 2026-04-21 22:04 | -28.97111 | -56.62107 | 34979 ft | 445 kts | 25° |
| 2026-04-21 22:04 | -28.91985 | -56.58150 | 34978 ft | 443 kts | 25° |
| 2026-04-21 22:05 | -28.86890 | -56.54224 | 34979 ft | 443 kts | 25° |
| 2026-04-21 22:05 | -28.81604 | -56.50156 | 34979 ft | 443 kts | 25° |
| 2026-04-21 22:06 | -28.76508 | -56.46234 | 34978 ft | 444 kts | 25° |
| 2026-04-21 22:06 | -28.71357 | -56.42274 | 34978 ft | 444 kts | 25° |
| 2026-04-21 22:07 | -28.66214 | -56.38324 | 34979 ft | 444 kts | 25° |
| 2026-04-21 22:07 | -28.61042 | -56.34359 | 34976 ft | 444 kts | 24° |
| 2026-04-21 22:08 | -28.55860 | -56.30357 | 34977 ft | 444 kts | 25° |
| 2026-04-21 22:08 | -28.50745 | -56.26423 | 34977 ft | 444 kts | 24° |
| 2026-04-21 22:09 | -28.45566 | -56.22458 | 34979 ft | 443 kts | 24° |
| 2026-04-21 22:09 | -28.40426 | -56.18536 | 34978 ft | 443 kts | 24° |
| 2026-04-21 22:10 | -28.35290 | -56.14623 | 34977 ft | 444 kts | 24° |
| 2026-04-21 22:10 | -28.30152 | -56.10713 | 34978 ft | 444 kts | 24° |
| 2026-04-21 22:11 | -28.24942 | -56.06750 | 34979 ft | 444 kts | 24° |
| 2026-04-21 22:11 | -28.19770 | -56.02822 | 34979 ft | 444 kts | 24° |
| 2026-04-21 22:12 | -28.14589 | -55.98891 | 34979 ft | 444 kts | 24° |
| 2026-04-21 22:12 | -28.09401 | -55.94961 | 34980 ft | 444 kts | 24° |
| 2026-04-21 22:13 | -28.04210 | -55.91033 | 34978 ft | 444 kts | 24° |
| 2026-04-21 22:13 | -27.99017 | -55.87108 | 34979 ft | 444 kts | 24° |
| 2026-04-21 22:14 | -27.93860 | -55.83216 | 34978 ft | 444 kts | 24° |
| 2026-04-21 22:14 | -27.88690 | -55.79326 | 34981 ft | 444 kts | 24° |
| 2026-04-21 22:15 | -27.83515 | -55.75448 | 34979 ft | 444 kts | 24° |
| 2026-04-21 22:15 | -27.78360 | -55.71580 | 34979 ft | 444 kts | 24° |
| 2026-04-21 22:16 | -27.73183 | -55.67695 | 34977 ft | 445 kts | 24° |
| 2026-04-21 22:16 | -27.68046 | -55.63838 | 34978 ft | 443 kts | 24° |
| 2026-04-21 22:17 | -27.62909 | -55.59985 | 34979 ft | 442 kts | 24° |
| 2026-04-21 22:17 | -27.57772 | -55.56134 | 34978 ft | 443 kts | 24° |
| 2026-04-21 22:18 | -27.52589 | -55.52252 | 34979 ft | 443 kts | 24° |
| 2026-04-21 22:18 | -27.47440 | -55.48403 | 34762 ft | 443 kts | 24° |
| 2026-04-21 22:18 | -27.44838 | -55.46460 | 34508 ft | 441 kts | 24° |
| 2026-04-21 22:19 | -27.42270 | -55.44545 | 34207 ft | 439 kts | 24° |
| 2026-04-21 22:19 | -27.39710 | -55.42636 | 33820 ft | 436 kts | 24° |
| 2026-04-21 22:19 | -27.37202 | -55.40768 | 33352 ft | 434 kts | 24° |
| 2026-04-21 22:19 | -27.34663 | -55.38880 | 32865 ft | 433 kts | 24° |
| 2026-04-21 22:20 | -27.32153 | -55.37011 | 32379 ft | 431 kts | 25° |
| 2026-04-21 22:20 | -27.29679 | -55.35171 | 31902 ft | 430 kts | 25° |
| 2026-04-21 22:20 | -27.27171 | -55.33298 | 31405 ft | 429 kts | 25° |
| 2026-04-21 22:20 | -27.24679 | -55.31426 | 30906 ft | 428 kts | 25° |
| 2026-04-21 22:21 | -27.22215 | -55.29577 | 30512 ft | 423 kts | 25° |
| 2026-04-21 22:21 | -27.19799 | -55.27770 | 30186 ft | 420 kts | 25° |
| 2026-04-21 22:21 | -27.17358 | -55.25951 | 29828 ft | 417 kts | 25° |
| 2026-04-21 22:21 | -27.14942 | -55.24154 | 29446 ft | 414 kts | 25° |
| 2026-04-21 22:22 | -27.12575 | -55.22396 | 29074 ft | 411 kts | 25° |
| 2026-04-21 22:22 | -27.10173 | -55.20617 | 28689 ft | 408 kts | 25° |
| 2026-04-21 22:22 | -27.07808 | -55.18866 | 28305 ft | 405 kts | 26° |
| 2026-04-21 22:22 | -27.05404 | -55.17087 | 27928 ft | 402 kts | 26° |
| 2026-04-21 22:23 | -27.03061 | -55.15356 | 27565 ft | 399 kts | 26° |
| 2026-04-21 22:23 | -27.00704 | -55.13612 | 27206 ft | 395 kts | 25° |
| 2026-04-21 22:23 | -26.98405 | -55.11913 | 26858 ft | 392 kts | 25° |
| 2026-04-21 22:23 | -26.96122 | -55.10228 | 26501 ft | 389 kts | 25° |
| 2026-04-21 22:24 | -26.93841 | -55.08544 | 26132 ft | 386 kts | 25° |
| 2026-04-21 22:24 | -26.91581 | -55.06878 | 25754 ft | 383 kts | 26° |
| 2026-04-21 22:24 | -26.89372 | -55.05249 | 25375 ft | 381 kts | 26° |
| 2026-04-21 22:24 | -26.87138 | -55.03611 | 24973 ft | 378 kts | 26° |
| 2026-04-21 22:25 | -26.84958 | -55.02013 | 24579 ft | 375 kts | 26° |
| 2026-04-21 22:25 | -26.82790 | -55.00423 | 24175 ft | 373 kts | 26° |
| 2026-04-21 22:25 | -26.80607 | -54.98819 | 23759 ft | 370 kts | 27° |
| 2026-04-21 22:25 | -26.80048 | -54.98408 | 23652 ft | 369 kts | 27° |
| 2026-04-21 22:26 | -26.77883 | -54.96815 | 23240 ft | 366 kts | 27° |
| 2026-04-21 22:26 | -26.75766 | -54.95258 | 22832 ft | 364 kts | 27° |
| 2026-04-21 22:26 | -26.73646 | -54.93699 | 22417 ft | 361 kts | 28° |
| 2026-04-21 22:26 | -26.71542 | -54.92153 | 21999 ft | 358 kts | 28° |
| 2026-04-21 22:27 | -26.69468 | -54.90628 | 21585 ft | 356 kts | 28° |
| 2026-04-21 22:27 | -26.67388 | -54.89101 | 21165 ft | 353 kts | 28° |
| 2026-04-21 22:27 | -26.65327 | -54.87590 | 20743 ft | 350 kts | 28° |
| 2026-04-21 22:27 | -26.63270 | -54.86082 | 20316 ft | 348 kts | 28° |
| 2026-04-21 22:28 | -26.61214 | -54.84575 | 19889 ft | 346 kts | 29° |
| 2026-04-21 22:28 | -26.59203 | -54.83114 | 19461 ft | 343 kts | 26° |
| 2026-04-21 22:28 | -26.57069 | -54.81977 | 19021 ft | 337 kts | 16° |
| 2026-04-21 22:28 | -26.54801 | -54.81342 | 18586 ft | 332 kts | 6° |
| 2026-04-21 22:29 | -26.52490 | -54.81051 | 18156 ft | 330 kts | 4° |
| 2026-04-21 22:29 | -26.50208 | -54.80817 | 17733 ft | 328 kts | 4° |
| 2026-04-21 22:29 | -26.47901 | -54.80584 | 17304 ft | 326 kts | 4° |
| 2026-04-21 22:29 | -26.45622 | -54.80351 | 16881 ft | 325 kts | 4° |
| 2026-04-21 22:30 | -26.43356 | -54.80116 | 16460 ft | 323 kts | 4° |
| 2026-04-21 22:30 | -26.41096 | -54.79880 | 16041 ft | 322 kts | 4° |
| 2026-04-21 22:30 | -26.38859 | -54.79646 | 15627 ft | 321 kts | 5° |
| 2026-04-21 22:30 | -26.36595 | -54.79409 | 15185 ft | 320 kts | 5° |
| 2026-04-21 22:31 | -26.34376 | -54.79176 | 14728 ft | 320 kts | 5° |
| 2026-04-21 22:31 | -26.32134 | -54.78941 | 14292 ft | 320 kts | 5° |
| 2026-04-21 22:31 | -26.29949 | -54.78711 | 13881 ft | 319 kts | 5° |
| 2026-04-21 22:31 | -26.27717 | -54.78476 | 13466 ft | 318 kts | 5° |
| 2026-04-21 22:32 | -26.25504 | -54.78243 | 13057 ft | 317 kts | 5° |
| 2026-04-21 22:32 | -26.23334 | -54.78015 | 12656 ft | 315 kts | 5° |
| 2026-04-21 22:32 | -26.21125 | -54.77782 | 12252 ft | 314 kts | 5° |
| 2026-04-21 22:32 | -26.18935 | -54.77583 | 11849 ft | 313 kts | 4° |
| 2026-04-21 22:33 | -26.16752 | -54.77434 | 11454 ft | 312 kts | 3° |
| 2026-04-21 22:33 | -26.14610 | -54.77299 | 11078 ft | 311 kts | 3° |
| 2026-04-21 22:33 | -26.12413 | -54.77159 | 10697 ft | 309 kts | 3° |
| 2026-04-21 22:33 | -26.10294 | -54.77023 | 10334 ft | 307 kts | 3° |
| 2026-04-21 22:34 | -26.08147 | -54.76883 | 10081 ft | 300 kts | 3° |
| 2026-04-21 22:34 | -26.06113 | -54.76750 | 10056 ft | 285 kts | 3° |
| 2026-04-21 22:34 | -26.04142 | -54.76621 | 9832 ft | 279 kts | 3° |
| 2026-04-21 22:34 | -26.02206 | -54.76494 | 9505 ft | 278 kts | 3° |
| 2026-04-21 22:35 | -26.00282 | -54.76368 | 9188 ft | 275 kts | 3° |
| 2026-04-21 22:35 | -25.98369 | -54.76242 | 8874 ft | 273 kts | 3° |
| 2026-04-21 22:35 | -25.96460 | -54.76116 | 8562 ft | 271 kts | 3° |
| 2026-04-21 22:35 | -25.94577 | -54.75993 | 8256 ft | 269 kts | 3° |
| 2026-04-21 22:36 | -25.90850 | -54.75748 | 7653 ft | 265 kts | 3° |
| 2026-04-21 22:36 | -25.88988 | -54.75625 | 7352 ft | 263 kts | 3° |
| 2026-04-21 22:36 | -25.87167 | -54.75506 | 7058 ft | 261 kts | 3° |
| 2026-04-21 22:37 | -25.85353 | -54.75388 | 6766 ft | 260 kts | 3° |
| 2026-04-21 22:37 | -25.83544 | -54.75269 | 6475 ft | 258 kts | 3° |
| 2026-04-21 22:37 | -25.81767 | -54.75152 | 6190 ft | 257 kts | 3° |
| 2026-04-21 22:37 | -25.79977 | -54.75034 | 5950 ft | 252 kts | 3° |
| 2026-04-21 22:38 | -25.78227 | -54.74919 | 5738 ft | 245 kts | 3° |
| 2026-04-21 22:38 | -25.76537 | -54.74808 | 5496 ft | 241 kts | 3° |
| 2026-04-21 22:38 | -25.74843 | -54.74696 | 5242 ft | 237 kts | 3° |
| 2026-04-21 22:38 | -25.73191 | -54.74587 | 4975 ft | 235 kts | 3° |
| 2026-04-21 22:39 | -25.71549 | -54.74480 | 4891 ft | 235 kts | 3° |
| 2026-04-21 22:39 | -25.69951 | -54.74105 | 4768 ft | 235 kts | 29° |
| 2026-04-21 22:39 | -25.68772 | -54.72855 | 4560 ft | 235 kts | 62° |
| 2026-04-21 22:39 | -25.68119 | -54.71220 | 4300 ft | 227 kts | 68° |
| 2026-04-21 22:40 | -25.67545 | -54.69600 | 4038 ft | 221 kts | 68° |
| 2026-04-21 22:40 | -25.66977 | -54.68023 | 3793 ft | 217 kts | 67° |
| 2026-04-21 22:40 | -25.66412 | -54.66439 | 3586 ft | 212 kts | 74° |
| 2026-04-21 22:40 | -25.66384 | -54.64811 | 3508 ft | 213 kts | 108° |
| 2026-04-21 22:41 | -25.66945 | -54.63350 | 3543 ft | 202 kts | 115° |
| 2026-04-21 22:41 | -25.67529 | -54.62042 | 3368 ft | 188 kts | 117° |
| 2026-04-21 22:41 | -25.68056 | -54.60774 | 3197 ft | 172 kts | 101° |
| 2026-04-21 22:41 | -25.68440 | -54.59571 | 3072 ft | 167 kts | 118° |
| 2026-04-21 22:42 | -25.69012 | -54.58453 | 2835 ft | 166 kts | 121° |
| 2026-04-21 22:42 | -25.69581 | -54.57334 | 2679 ft | 168 kts | 117° |
| 2026-04-21 22:42 | -25.70081 | -54.56153 | 2491 ft | 166 kts | 114° |
| 2026-04-21 22:42 | -25.70545 | -54.55000 | 2242 ft | 164 kts | 115° |
| 2026-04-21 22:43 | -25.71019 | -54.53847 | 1952 ft | 162 kts | 115° |
| 2026-04-21 22:43 | -25.71480 | -54.52742 | 1742 ft | 153 kts | 114° |
| 2026-04-21 22:43 | -25.71906 | -54.51699 | 1471 ft | 148 kts | 115° |
| 2026-04-21 22:43 | -25.72334 | -54.50653 | 1361 ft | 148 kts | 114° |
| 2026-04-21 22:44 | -25.72770 | -54.49628 | 1157 ft | 148 kts | 115° |
| 2026-04-21 22:44 | -25.73203 | -54.48592 | 937 ft | 146 kts | 115° |
| 2026-04-21 22:44 | -25.73596 | -54.47657 | 925 ft | 112 kts | 115° |
| 2026-04-21 22:44 | -25.73853 | -54.47048 | 924 ft | 63 kts | 115° |
| 2026-04-21 22:45 | -25.73977 | -54.46748 | 924 ft | 31 kts | 115° |
| 2026-04-21 22:45 | -25.74063 | -54.46540 | 925 ft | 28 kts | 114° |
| 2026-04-21 22:45 | -25.74140 | -54.46347 | 924 ft | 26 kts | 116° |
| 2026-04-21 22:45 | -25.74218 | -54.46168 | 924 ft | 24 kts | 114° |
| 2026-04-21 22:46 | -25.74289 | -54.45998 | 924 ft | 22 kts | 111° |
| 2026-04-21 22:46 | -25.74324 | -54.45871 | 924 ft | 9 kts | 128° |
| 2026-04-21 22:46 | -25.74327 | -54.45908 | 924 ft | 9 kts | 297° |
| 2026-04-21 22:46 | -25.74272 | -54.46044 | 924 ft | 24 kts | 295° |
| 2026-04-21 22:47 | -25.74201 | -54.46214 | 925 ft | 23 kts | 295° |
| 2026-04-21 22:47 | -25.74133 | -54.46376 | 925 ft | 22 kts | 294° |
| 2026-04-21 22:47 | -25.74073 | -54.46529 | 924 ft | 21 kts | 294° |
| 2026-04-21 22:47 | -25.74009 | -54.46672 | 924 ft | 20 kts | 296° |
| 2026-04-21 22:48 | -25.73949 | -54.46810 | 925 ft | 19 kts | 297° |
| 2026-04-21 22:48 | -25.73891 | -54.46945 | 925 ft | 19 kts | 295° |
| 2026-04-21 22:48 | -25.73838 | -54.47082 | 925 ft | 19 kts | 292° |
| 2026-04-21 22:48 | -25.73777 | -54.47217 | 924 ft | 19 kts | 305° |
| 2026-04-21 22:49 | -25.73676 | -54.47313 | 924 ft | 19 kts | 324° |
| 2026-04-21 22:49 | -25.73569 | -54.47396 | 925 ft | 18 kts | 324° |
| 2026-04-21 22:49 | -25.73465 | -54.47478 | 924 ft | 17 kts | 324° |
| 2026-04-21 22:49 | -25.73366 | -54.47559 | 924 ft | 17 kts | 323° |
| 2026-04-21 22:50 | -25.73293 | -54.47652 | 925 ft | 12 kts | 295° |
| 2026-04-21 22:50 | -25.73254 | -54.47707 | 924 ft | 7 kts | 15° |
| 2026-04-21 22:50 | -25.73223 | -54.47687 | 925 ft | 0 kts | 26° |